createdAt,value
2019-03-03T00:00:42.932Z,5.49
2019-03-03T00:03:11.412Z,5.47
2019-03-03T00:05:39.889Z,5.46
2019-03-03T00:08:08.383Z,5.53
2019-03-03T00:10:36.972Z,5.52
2019-03-03T00:13:05.444Z,5.49
2019-03-03T00:15:33.990Z,5.55
2019-03-03T00:18:02.443Z,5.59
2019-03-03T00:20:30.904Z,5.71
2019-03-03T00:22:59.357Z,5.62
2019-03-03T00:25:27.831Z,5.67
2019-03-03T00:27:56.293Z,5.66
2019-03-03T00:30:24.919Z,5.83
2019-03-03T00:32:53.364Z,5.83
2019-03-03T00:35:22.525Z,5.76
2019-03-03T00:37:55.599Z,5.83
2019-03-03T00:40:34.742Z,5.93
2019-03-03T00:43:10.375Z,6.00
2019-03-03T00:45:40.493Z,5.93
2019-03-03T00:48:10.615Z,5.92
2019-03-03T00:50:40.712Z,5.98
2019-03-03T00:53:27.198Z,5.98
2019-03-03T00:55:59.681Z,5.84
2019-03-03T00:58:45.106Z,6.03
2019-03-03T01:01:18.289Z,5.95
2019-03-03T01:03:48.394Z,6.16
2019-03-03T01:06:36.596Z,6.13
2019-03-03T01:09:15.325Z,6.16
2019-03-03T01:11:45.437Z,6.06
2019-03-03T01:14:18.295Z,6.07
2019-03-03T01:16:57.455Z,6.08
2019-03-03T01:19:30.393Z,6.10
2019-03-03T01:22:12.479Z,6.09
2019-03-03T01:24:54.217Z,6.24
2019-03-03T01:27:22.829Z,6.29
2019-03-03T01:29:51.347Z,6.23
2019-03-03T01:32:19.892Z,6.14
2019-03-03T01:34:48.356Z,6.23
2019-03-03T01:37:16.993Z,6.15
2019-03-03T01:39:45.459Z,6.18
2019-03-03T01:42:13.919Z,6.19
2019-03-03T01:44:42.389Z,6.09
2019-03-03T01:47:10.860Z,6.07
2019-03-03T01:49:39.343Z,6.15
2019-03-03T01:52:07.791Z,6.00
2019-03-03T01:54:36.276Z,5.99
2019-03-03T01:57:05.063Z,6.11
2019-03-03T01:59:33.543Z,6.06
2019-03-03T02:02:02.047Z,6.07
2019-03-03T02:04:30.518Z,6.11
2019-03-03T02:06:59.003Z,6.24
2019-03-03T02:09:27.605Z,6.20
2019-03-03T02:11:56.253Z,6.21
2019-03-03T02:14:24.747Z,6.32
2019-03-03T02:16:53.220Z,6.23
2019-03-03T02:19:21.675Z,6.28
2019-03-03T02:21:50.258Z,6.29
2019-03-03T02:24:18.712Z,6.35
2019-03-03T02:26:47.172Z,6.38
2019-03-03T02:29:15.631Z,6.38
2019-03-03T02:31:44.091Z,6.35
2019-03-03T02:34:12.569Z,6.29
2019-03-03T02:36:41.059Z,6.38
2019-03-03T02:39:15.466Z,6.61
2019-03-03T02:41:43.917Z,6.56
2019-03-03T02:44:12.353Z,6.60
2019-03-03T02:46:40.825Z,6.56
2019-03-03T02:49:09.282Z,6.56
2019-03-03T02:51:37.984Z,6.56
2019-03-03T02:54:06.584Z,6.61
2019-03-03T02:56:35.039Z,6.51
2019-03-03T02:59:03.500Z,6.55
2019-03-03T03:01:33.593Z,6.46
2019-03-03T03:04:02.050Z,6.45
2019-03-03T03:06:34.922Z,6.39
2019-03-03T03:09:15.670Z,6.47
2019-03-03T03:11:45.760Z,6.40
2019-03-03T03:14:15.850Z,6.40
2019-03-03T03:16:48.673Z,6.48
2019-03-03T03:19:33.957Z,6.57
2019-03-03T03:22:10.134Z,6.50
2019-03-03T03:24:46.039Z,6.48
2019-03-03T03:27:25.437Z,6.53
2019-03-03T03:29:58.075Z,6.65
2019-03-03T03:32:28.162Z,6.69
2019-03-03T03:34:58.290Z,6.65
2019-03-03T03:37:34.036Z,6.62
2019-03-03T03:40:19.374Z,6.62
2019-03-03T03:42:55.364Z,6.63
2019-03-03T03:45:34.244Z,6.59
2019-03-03T03:48:04.346Z,6.64
2019-03-03T03:50:46.001Z,6.59
2019-03-03T03:53:32.546Z,6.52
2019-03-03T03:56:02.650Z,6.45
2019-03-03T03:58:45.179Z,6.43
2019-03-03T04:01:27.259Z,6.41
2019-03-03T04:04:00.028Z,6.40
2019-03-03T04:06:42.043Z,6.40
2019-03-03T04:09:25.445Z,6.41
2019-03-03T04:12:10.491Z,6.39
2019-03-03T04:14:43.033Z,6.37
2019-03-03T04:17:22.020Z,6.56
2019-03-03T04:20:01.061Z,6.65
2019-03-03T04:22:31.144Z,6.61
2019-03-03T04:25:01.252Z,6.57
2019-03-03T04:27:31.337Z,6.61
2019-03-03T04:30:01.427Z,6.59
2019-03-03T04:32:31.517Z,6.65
2019-03-03T04:35:04.428Z,6.66
2019-03-03T04:37:51.010Z,6.63
2019-03-03T04:40:36.331Z,6.62
2019-03-03T04:43:21.836Z,6.66
2019-03-03T04:45:54.568Z,6.74
2019-03-03T04:48:24.709Z,6.80
2019-03-03T04:51:09.770Z,6.86
2019-03-03T04:53:42.510Z,6.82
2019-03-03T04:56:21.069Z,6.89
2019-03-03T04:58:51.138Z,6.92
2019-03-03T05:01:27.390Z,6.98
2019-03-03T05:04:00.414Z,6.92
2019-03-03T05:06:42.438Z,7.05
2019-03-03T05:09:24.398Z,7.15
2019-03-03T05:12:27.644Z,7.15
2019-03-03T05:15:00.420Z,7.16
2019-03-03T05:17:30.545Z,7.27
2019-03-03T05:20:03.284Z,7.37
2019-03-03T05:22:31.710Z,7.32
2019-03-03T05:25:00.319Z,7.41
2019-03-03T05:27:28.777Z,7.49
2019-03-03T05:29:57.242Z,7.49
2019-03-03T05:32:25.690Z,7.51
2019-03-03T05:34:54.168Z,7.56
2019-03-03T05:37:22.621Z,7.61
2019-03-03T05:39:51.095Z,7.51
2019-03-03T05:42:19.580Z,7.54
2019-03-03T05:44:48.035Z,7.58
2019-03-03T05:47:16.490Z,7.55
2019-03-03T05:49:44.927Z,7.54
2019-03-03T05:52:13.382Z,7.47
2019-03-03T05:54:41.825Z,7.52
2019-03-03T05:57:10.242Z,7.59
2019-03-03T05:59:38.707Z,7.58
2019-03-03T06:02:07.135Z,7.53
2019-03-03T06:04:35.558Z,7.51
2019-03-03T06:07:04.034Z,7.63
2019-03-03T06:09:32.511Z,7.59
2019-03-03T06:12:01.034Z,7.68
2019-03-03T06:14:29.478Z,7.79
2019-03-03T06:16:57.942Z,7.76
2019-03-03T06:19:26.373Z,7.78
2019-03-03T06:21:54.832Z,7.86
2019-03-03T06:24:23.306Z,7.91
2019-03-03T06:26:51.824Z,7.87
2019-03-03T06:29:20.276Z,7.91
2019-03-03T06:31:48.666Z,7.92
2019-03-03T06:34:17.121Z,8.03
2019-03-03T06:36:45.578Z,8.11
2019-03-03T06:39:14.054Z,8.23
2019-03-03T06:41:42.480Z,8.21
2019-03-03T06:44:10.920Z,8.25
2019-03-03T06:46:39.368Z,8.27
2019-03-03T06:49:07.796Z,8.31
2019-03-03T06:51:36.240Z,8.31
2019-03-03T06:54:04.780Z,8.42
2019-03-03T06:56:33.246Z,8.40
2019-03-03T06:59:01.699Z,8.44
2019-03-03T07:01:30.136Z,8.51
2019-03-03T07:03:58.590Z,8.51
2019-03-03T07:06:27.058Z,8.69
2019-03-03T07:08:55.562Z,8.73
2019-03-03T07:11:24.000Z,8.76
2019-03-03T07:13:52.992Z,8.73
2019-03-03T07:16:21.456Z,8.85
2019-03-03T07:18:49.914Z,8.93
2019-03-03T07:21:18.374Z,8.95
2019-03-03T07:23:46.808Z,8.96
2019-03-03T07:26:15.254Z,9.10
2019-03-03T07:28:43.716Z,9.11
2019-03-03T07:31:12.190Z,9.16
2019-03-03T07:33:40.712Z,9.21
2019-03-03T07:36:09.158Z,9.27
2019-03-03T07:38:37.610Z,9.27
2019-03-03T07:41:06.056Z,9.35
2019-03-03T07:43:34.520Z,9.38
2019-03-03T07:46:02.952Z,9.45
2019-03-03T07:48:31.433Z,9.51
2019-03-03T07:50:59.864Z,9.55
2019-03-03T07:53:28.322Z,9.59
2019-03-03T07:55:56.768Z,9.65
2019-03-03T07:58:25.244Z,9.72
2019-03-03T08:00:53.718Z,9.77
2019-03-03T08:03:22.154Z,9.80
2019-03-03T08:05:50.623Z,9.82
2019-03-03T08:08:19.062Z,9.87
2019-03-03T08:10:47.512Z,9.92
2019-03-03T08:13:15.971Z,9.95
2019-03-03T08:15:44.425Z,10.02
2019-03-03T08:18:12.856Z,10.04
2019-03-03T08:20:41.310Z,10.14
2019-03-03T08:23:09.776Z,10.24
2019-03-03T08:25:38.216Z,10.52
2019-03-03T08:28:06.651Z,10.52
2019-03-03T08:30:35.113Z,10.52
2019-03-03T08:33:03.729Z,10.52
2019-03-03T08:35:33.202Z,10.59
2019-03-03T08:38:01.664Z,10.59
2019-03-03T08:40:30.112Z,10.74
2019-03-03T08:43:09.232Z,10.77
2019-03-03T08:45:54.292Z,10.81
2019-03-03T08:48:24.403Z,10.82
2019-03-03T08:50:57.199Z,10.79
2019-03-03T08:53:27.275Z,10.79
2019-03-03T08:56:03.610Z,10.72
2019-03-03T08:58:39.931Z,10.72
2019-03-03T09:01:10.480Z,10.78
2019-03-03T09:03:49.572Z,10.85
2019-03-03T09:06:22.324Z,10.85
2019-03-03T09:09:01.496Z,10.74
2019-03-03T09:11:46.893Z,10.81
2019-03-03T09:14:16.974Z,10.81
2019-03-03T09:16:56.770Z,10.89
2019-03-03T09:19:26.850Z,10.72
2019-03-03T09:22:12.068Z,10.87
2019-03-03T09:24:46.333Z,10.81
2019-03-03T09:27:16.426Z,10.77
2019-03-03T09:29:46.516Z,10.77
2019-03-03T09:32:19.556Z,10.77
2019-03-03T09:34:49.667Z,10.77
2019-03-03T09:37:28.489Z,10.93
2019-03-03T09:40:15.154Z,10.93
2019-03-03T09:42:50.647Z,10.95
2019-03-03T09:45:20.754Z,10.98
2019-03-03T09:47:56.828Z,10.98
2019-03-03T09:50:26.919Z,11.21
2019-03-03T09:53:13.536Z,11.23
2019-03-03T09:55:46.604Z,11.37
2019-03-03T09:58:19.388Z,11.32
2019-03-03T10:00:55.674Z,11.40
2019-03-03T10:03:31.557Z,11.31
2019-03-03T10:06:15.455Z,11.31
2019-03-03T10:09:01.754Z,11.25
2019-03-03T10:11:34.680Z,11.26
2019-03-03T10:14:04.778Z,11.30
2019-03-03T10:16:46.835Z,11.32
2019-03-03T10:19:16.911Z,11.36
2019-03-03T10:21:49.957Z,11.43
2019-03-03T10:24:36.272Z,11.48
2019-03-03T10:27:12.900Z,11.42
2019-03-03T10:29:42.997Z,11.45
2019-03-03T10:32:13.076Z,11.55
2019-03-03T10:34:59.670Z,11.58
2019-03-03T10:37:44.533Z,11.48
2019-03-03T10:40:20.124Z,11.37
2019-03-03T10:42:50.242Z,11.51
2019-03-03T10:45:38.332Z,11.57
2019-03-03T10:48:08.411Z,11.52
2019-03-03T10:50:44.232Z,11.58
2019-03-03T10:53:14.310Z,11.70
2019-03-03T10:55:44.402Z,11.64
2019-03-03T10:58:26.777Z,11.63
2019-03-03T11:00:59.968Z,11.66
2019-03-03T11:03:32.961Z,11.64
2019-03-03T11:06:03.219Z,11.87
2019-03-03T11:08:36.001Z,12.03
2019-03-03T11:11:19.241Z,12.07
2019-03-03T11:13:49.666Z,12.19
2019-03-03T11:16:32.035Z,12.17
2019-03-03T11:19:10.721Z,12.11
2019-03-03T11:21:40.844Z,12.11
2019-03-03T11:24:10.952Z,12.20
2019-03-03T11:26:57.238Z,12.22
2019-03-03T11:29:27.344Z,12.11
2019-03-03T11:32:15.730Z,12.10
2019-03-03T11:34:45.841Z,11.94
2019-03-03T11:37:15.952Z,11.99
2019-03-03T11:39:46.076Z,12.00
2019-03-03T11:42:19.806Z,12.14
2019-03-03T11:45:06.583Z,12.19
2019-03-03T11:47:36.687Z,12.19
2019-03-03T11:50:15.788Z,12.08
2019-03-03T11:52:51.834Z,12.00
2019-03-03T11:55:37.059Z,12.02
2019-03-03T11:58:09.939Z,11.87
2019-03-03T12:00:40.030Z,11.82
2019-03-03T12:03:10.140Z,11.82
2019-03-03T12:05:40.272Z,11.80
2019-03-03T12:08:22.360Z,11.80
2019-03-03T12:10:55.160Z,11.74
2019-03-03T12:13:25.274Z,11.64
2019-03-03T12:16:08.083Z,11.64
2019-03-03T12:18:54.598Z,11.60
2019-03-03T12:21:30.460Z,11.52
2019-03-03T12:24:18.780Z,11.56
2019-03-03T12:26:48.881Z,11.55
2019-03-03T12:29:35.128Z,11.61
2019-03-03T12:32:05.209Z,11.73
2019-03-03T12:34:44.467Z,11.79
2019-03-03T12:37:17.569Z,11.81
2019-03-03T12:39:47.661Z,11.77
2019-03-03T12:42:26.577Z,11.96
2019-03-03T12:45:11.631Z,12.03
2019-03-03T12:47:47.704Z,12.02
2019-03-03T12:50:33.093Z,11.94
2019-03-03T12:53:08.920Z,11.77
2019-03-03T12:55:41.419Z,11.98
2019-03-03T12:58:11.518Z,12.00
2019-03-03T13:00:56.389Z,12.13
2019-03-03T13:03:29.432Z,12.15
2019-03-03T13:06:08.062Z,12.18
2019-03-03T13:08:43.877Z,12.18
2019-03-03T13:11:30.151Z,12.18
2019-03-03T13:14:12.263Z,12.17
2019-03-03T13:16:48.054Z,12.25
2019-03-03T13:19:18.333Z,12.20
2019-03-03T13:22:04.680Z,12.15
2019-03-03T13:24:37.199Z,12.08
2019-03-03T13:27:22.097Z,12.15
2019-03-03T13:29:54.907Z,12.12
2019-03-03T13:32:30.929Z,12.12
2019-03-03T13:35:07.005Z,12.02
2019-03-03T13:37:37.089Z,12.02
2019-03-03T13:40:21.665Z,12.24
2019-03-03T13:42:58.856Z,12.31
2019-03-03T13:45:29.373Z,12.20
2019-03-03T13:47:57.887Z,12.06
2019-03-03T13:50:26.563Z,12.12
2019-03-03T13:52:55.093Z,12.30
2019-03-03T13:55:23.706Z,12.24
2019-03-03T13:57:52.369Z,12.24
2019-03-03T14:00:22.895Z,12.24
2019-03-03T14:02:51.496Z,12.25
2019-03-03T14:05:21.518Z,12.39
2019-03-03T14:07:50.133Z,12.34
2019-03-03T14:10:18.621Z,12.41
2019-03-03T14:12:47.219Z,12.45
2019-03-03T14:15:17.630Z,12.44
2019-03-03T14:17:46.106Z,12.41
2019-03-03T14:20:17.624Z,12.44
2019-03-03T14:22:46.251Z,12.55
2019-03-03T14:25:15.422Z,12.41
2019-03-03T14:27:44.118Z,12.41
2019-03-03T14:30:17.893Z,12.35
2019-03-03T14:32:46.399Z,12.34
2019-03-03T14:35:16.323Z,12.20
2019-03-03T14:37:44.753Z,12.02
2019-03-03T14:40:15.973Z,12.09
2019-03-03T14:42:44.409Z,12.09
2019-03-03T14:45:17.914Z,11.90
2019-03-03T14:47:46.563Z,11.92
2019-03-03T14:50:20.445Z,11.93
2019-03-03T14:52:51.175Z,11.77
2019-03-03T14:55:20.354Z,11.80
2019-03-03T14:57:48.863Z,11.81
2019-03-03T15:00:29.100Z,11.81
2019-03-03T15:02:59.014Z,11.64
2019-03-03T15:05:27.553Z,11.64
2019-03-03T15:07:56.102Z,11.55
2019-03-03T15:10:24.555Z,11.58
2019-03-03T15:12:53.111Z,11.52
2019-03-03T15:15:27.514Z,11.44
2019-03-03T15:17:56.015Z,11.50
2019-03-03T15:20:26.839Z,11.51
2019-03-03T15:22:55.227Z,11.47
2019-03-03T15:25:23.762Z,11.34
2019-03-03T15:27:52.296Z,11.31
2019-03-03T15:30:21.876Z,11.35
2019-03-03T15:32:50.663Z,11.33
2019-03-03T15:35:19.261Z,11.24
2019-03-03T15:37:47.983Z,11.19
2019-03-03T15:40:21.993Z,11.14
2019-03-03T15:42:50.423Z,11.13
2019-03-03T15:45:23.331Z,11.11
2019-03-03T15:47:51.775Z,10.99
2019-03-03T15:50:22.229Z,10.95
2019-03-03T15:52:50.775Z,10.98
2019-03-03T15:55:20.943Z,10.91
2019-03-03T15:57:49.415Z,10.97
2019-03-03T16:00:26.412Z,10.84
2019-03-03T16:02:54.879Z,10.78
2019-03-03T16:05:23.311Z,10.81
2019-03-03T16:07:51.762Z,10.82
2019-03-03T16:10:24.897Z,10.81
2019-03-03T16:12:53.288Z,10.72
2019-03-03T16:15:21.794Z,10.70
2019-03-03T16:17:50.237Z,10.70
2019-03-03T16:20:20.331Z,10.65
2019-03-03T16:22:48.846Z,10.69
2019-03-03T16:25:24.967Z,10.66
2019-03-03T16:27:53.415Z,10.70
2019-03-03T16:30:25.623Z,10.57
2019-03-03T16:32:54.064Z,10.62
2019-03-03T16:35:22.618Z,10.52
2019-03-03T16:37:51.059Z,10.52
2019-03-03T16:40:27.055Z,10.60
2019-03-03T16:42:55.510Z,10.46
2019-03-03T16:45:24.045Z,10.46
2019-03-03T16:47:52.515Z,10.51
2019-03-03T16:50:22.096Z,10.41
2019-03-03T16:52:50.607Z,10.42
2019-03-03T16:55:20.225Z,10.42
2019-03-03T16:57:48.743Z,10.43
2019-03-03T17:00:25.845Z,10.51
2019-03-03T17:02:54.312Z,10.46
2019-03-03T17:05:25.143Z,10.49
2019-03-03T17:07:53.617Z,10.47
2019-03-03T17:10:22.053Z,10.43
2019-03-03T17:12:50.493Z,10.40
2019-03-03T17:15:24.612Z,10.40
2019-03-03T17:17:53.077Z,10.42
2019-03-03T17:20:21.512Z,10.42
2019-03-03T17:22:50.226Z,10.41
2019-03-03T17:25:26.254Z,10.47
2019-03-03T17:27:54.712Z,10.47
2019-03-03T17:30:24.295Z,10.45
2019-03-03T17:32:52.803Z,10.44
2019-03-03T17:35:21.511Z,10.44
2019-03-03T17:37:49.972Z,10.42
2019-03-03T17:40:26.634Z,10.42
2019-03-03T17:42:55.362Z,10.37
2019-03-03T17:45:24.645Z,10.37
2019-03-03T17:47:53.725Z,10.40
2019-03-03T17:50:26.934Z,10.50
2019-03-03T17:52:55.475Z,10.50
2019-03-03T17:55:23.971Z,10.50
2019-03-03T17:57:52.438Z,10.46
2019-03-03T18:00:27.177Z,10.31
2019-03-03T18:02:55.767Z,10.42
2019-03-03T18:05:24.223Z,10.38
2019-03-03T18:07:52.798Z,10.45
2019-03-03T18:10:21.284Z,10.34
2019-03-03T18:12:49.916Z,10.34
2019-03-03T18:15:18.631Z,10.43
2019-03-03T18:17:47.124Z,10.43
2019-03-03T18:20:22.206Z,10.47
2019-03-03T18:22:50.724Z,10.42
2019-03-03T18:25:20.240Z,10.47
2019-03-03T18:27:48.679Z,10.41
2019-03-03T18:30:19.361Z,10.41
2019-03-03T18:32:48.085Z,10.53
2019-03-03T18:35:16.794Z,10.53
2019-03-03T18:37:45.379Z,10.45
2019-03-03T18:40:19.160Z,10.43
2019-03-03T18:42:48.048Z,10.43
2019-03-03T18:45:18.223Z,10.50
2019-03-03T18:47:46.943Z,10.41
2019-03-03T18:50:28.904Z,10.41
2019-03-03T18:52:59.681Z,10.47
2019-03-03T18:55:27.532Z,10.52
2019-03-03T18:57:56.006Z,10.39
2019-03-03T19:00:26.272Z,10.47
2019-03-03T19:02:54.741Z,10.47
2019-03-03T19:05:23.493Z,10.51
2019-03-03T19:07:52.471Z,10.50
2019-03-03T19:10:25.172Z,10.38
2019-03-03T19:12:53.894Z,10.40
2019-03-03T19:15:22.362Z,10.40
2019-03-03T19:17:50.825Z,10.41
2019-03-03T19:20:21.158Z,10.37
2019-03-03T19:22:50.166Z,10.45
2019-03-03T19:25:18.899Z,10.49
